Gabriella — OJHP — position and weather

sailwx.info

Track history (hours):
 
Tides and Currents Weather Stations Pressure Air Temp Water Temp Dewpoint Dewpoint Depression Visibility Wind Speed Wind Dir Waves Ship Positions

Gabriella

Last reported at 2017-Mar-25 05:32 UTC. Time now 2017-Mar-25 11:39 UTC.
Position N 59°50' E 024°00'.

Length 172 m; draft 6.5 m.

Type: Ship (hazmat cat A). MMSI: 230361000.

Date/timePositionNaut miles runAvg speedWind from/ knotsBaromVisibWave heightAir tempDewpointWater temp
2017-Mar-25 05:32N 59°50' E 024°00'1818.1
2017-Mar-25 04:33N 59°42' E 023°28'3618.1
2017-Mar-25 02:33N 59°35' E 022°18'1818.1
2017-Mar-25 01:33N 59°32' E 021°43'2018.2
2017-Mar-25 00:27N 59°36' E 021°04'8011.0
2017-Mar-24 17:10N 59°28' E 018°26'6 9.9
2017-Mar-24 16:33N 59°22' E 018°27'1010.4
2017-Mar-24 15:33N 59°19' E 018°08'1 0.9
2017-Mar-24 14:32N 59°19' E 018°06'0 0.0
2017-Mar-24 13:32N 59°19' E 018°06'0 0.0
2017-Mar-24 12:32N 59°19' E 018°06'0 0.0
2017-Mar-24 11:32N 59°19' E 018°06'0 0.0
2017-Mar-24 10:32N 59°19' E 018°06'0 0.0
2017-Mar-24 09:32N 59°19' E 018°06'2 2.0
2017-Mar-24 08:33N 59°19' E 018°10'10 9.5
2017-Mar-24 07:33N 59°23' E 018°27'81 9.8
2017-Mar-23 23:18N 59°37' E 021°04'1317.4
2017-Mar-23 22:33N 59°34' E 021°29'1717.0
2017-Mar-23 21:33N 59°33' E 022°02'4017.5
2017-Mar-23 19:15N 59°41' E 023°20'1217.4
2017-Mar-23 18:33N 59°45' E 023°43'2017.0
2017-Mar-23 17:23N 59°56' E 024°16'66 4.4
2017-Mar-23 02:32N 59°34' E 022°13'1818.1
2017-Mar-23 01:33N 59°32' E 021°38'9812.2
2017-Mar-22 17:32N 59°28' E 018°26'7 6.7
2017-Mar-22 16:33N 59°22' E 018°19'7 7.1
2017-Mar-22 15:31N 59°19' E 018°06'0 0.0
2017-Mar-22 14:31N 59°19' E 018°06'0 0.0
2017-Mar-22 13:31N 59°19' E 018°06'0 0.0
2017-Mar-22 12:31N 59°19' E 018°06'0 0.0
2017-Mar-22 11:31N 59°19' E 018°06'0 0.0
2017-Mar-22 10:31N 59°19' E 018°06'0 0.0
2017-Mar-22 09:28N 59°19' E 018°06'2 2.1
2017-Mar-22 08:33N 59°19' E 018°10'9 8.9
2017-Mar-22 07:30N 59°23' E 018°27'9210.3
2017-Mar-21 22:32N 59°34' E 021°27'19 0.9
2017-Mar-21 02:09N 59°33' E 022°03'1017.7
2017-Mar-21 01:33N 59°32' E 021°43'10011.8
2017-Mar-20 17:06N 59°27' E 018°26'5 9.5
2017-Mar-20 16:33N 59°22' E 018°27'1010.3
2017-Mar-20 15:33N 59°19' E 018°08'1 1.0
2017-Mar-20 14:32N 59°19' E 018°06'0 0.0
2017-Mar-20 13:32N 59°19' E 018°06'0 0.0
2017-Mar-20 12:32N 59°19' E 018°06'0 0.0
2017-Mar-20 11:32N 59°19' E 018°06'0 0.0
2017-Mar-20 10:29N 59°19' E 018°06'0 0.0
2017-Mar-20 09:32N 59°19' E 018°06'2 1.8
2017-Mar-20 08:33N 59°19' E 018°09'10 9.6
2017-Mar-20 07:32N 59°23' E 018°27'82 9.9
2017-Mar-19 23:11N 59°37' E 021°07'1117.3
2017-Mar-19 22:33N 59°34' E 021°28'1817.0
2017-Mar-19 21:31N 59°33' E 022°03'1817.3
2017-Mar-19 20:28N 59°36' E 022°38'55 3.8
2017-Mar-19 06:12N 59°51' E 024°22'1117.9
2017-Mar-19 05:33N 59°47' E 024°00'1817.9
2017-Mar-19 04:33N 59°42' E 023°26'2217.9
2017-Mar-19 03:20N 59°37' E 022°44'1417.9
2017-Mar-19 02:33N 59°34' E 022°16'1717.7
2017-Mar-19 01:33N 59°31' E 021°42'9911.9
2017-Mar-18 17:14N 59°29' E 018°27'7 9.9
2017-Mar-18 16:33N 59°22' E 018°27'1010.3
2017-Mar-18 15:33N 59°19' E 018°08'1 0.9
2017-Mar-18 14:33N 59°19' E 018°06'0 0.0
2017-Mar-18 13:33N 59°19' E 018°06'0 0.0
2017-Mar-18 12:33N 59°19' E 018°06'0 0.0
2017-Mar-18 11:33N 59°19' E 018°06'0 0.0
2017-Mar-18 10:34N 59°19' E 018°06'0 0.0
2017-Mar-18 09:33N 59°19' E 018°06'2 2.2
2017-Mar-18 08:33N 59°19' E 018°10'10 7.2
2017-Mar-18 07:14N 59°26' E 018°23'8310.4
2017-Mar-17 23:12N 59°37' E 021°06'1117.1
2017-Mar-17 22:32N 59°34' E 021°28'1717.1
2017-Mar-17 21:33N 59°33' E 022°01'3617.4
2017-Mar-17 19:28N 59°40' E 023°11'1617.3
2017-Mar-17 18:33N 59°44' E 023°42'21 1.7
2017-Mar-17 06:13N 59°51' E 024°22'1218.0
2017-Mar-17 05:33N 59°47' E 023°60'1818.0
2017-Mar-17 04:33N 59°42' E 023°25'3718.0
2017-Mar-17 02:30N 59°34' E 022°14'1717.8
2017-Mar-17 01:33N 59°32' E 021°41'1817.9
2017-Mar-17 00:33N 59°36' E 021°07'8211.1
2017-Mar-16 17:10N 59°28' E 018°26'6 9.5
2017-Mar-16 16:33N 59°22' E 018°27'1010.3
2017-Mar-16 15:33N 59°19' E 018°08'1 1.0
2017-Mar-16 14:33N 59°19' E 018°06'0 0.0
2017-Mar-16 13:33N 59°19' E 018°06'0 0.0
2017-Mar-16 12:33N 59°19' E 018°06'0 0.0
2017-Mar-16 11:33N 59°19' E 018°06'0 0.0
2017-Mar-16 10:33N 59°19' E 018°06'0 0.0
2017-Mar-16 09:33N 59°19' E 018°06'2 1.9
2017-Mar-16 08:33N 59°19' E 018°10'10 9.3
2017-Mar-16 07:31N 59°24' E 018°27'80 9.8
2017-Mar-15 23:18N 59°37' E 021°03'1317.3
2017-Mar-15 22:33N 59°34' E 021°28'1717.0
2017-Mar-15 21:33N 59°33' E 022°01'3517.3
2017-Mar-15 19:31N 59°40' E 023°09'1717.3
2017-Mar-15 18:33N 59°44' E 023°41'4117.0
2017-Mar-15 16:10N 60°00' E 024°55'19 1.9
2017-Mar-15 06:12N 59°50' E 024°22'1218.0
2017-Mar-15 05:34N 59°47' E 024°00'  
Track history (hours):
 
Tides and Currents Weather Stations Pressure Air Temp Water Temp Dewpoint Dewpoint Depression Visibility Wind Speed Wind Dir Waves Ship Positions

Gabriella

Last reported at 2017-Mar-25 05:32 UTC. Time now 2017-Mar-25 11:39 UTC.
Position N 59°50' E 024°00'.

Length 172 m; draft 6.5 m.

Type: Ship (hazmat cat A). MMSI: 230361000.

Date/timePositionNaut miles runAvg speedWind from/ knotsBaromVisibWave heightAir tempDewpointWater temp
2017-Mar-25 05:32N 59°50' E 024°00'1818.1
2017-Mar-25 04:33N 59°42' E 023°28'3618.1
2017-Mar-25 02:33N 59°35' E 022°18'1818.1
2017-Mar-25 01:33N 59°32' E 021°43'2018.2
2017-Mar-25 00:27N 59°36' E 021°04'8011.0
2017-Mar-24 17:10N 59°28' E 018°26'6 9.9
2017-Mar-24 16:33N 59°22' E 018°27'1010.4
2017-Mar-24 15:33N 59°19' E 018°08'1 0.9
2017-Mar-24 14:32N 59°19' E 018°06'0 0.0
2017-Mar-24 13:32N 59°19' E 018°06'0 0.0
2017-Mar-24 12:32N 59°19' E 018°06'0 0.0
2017-Mar-24 11:32N 59°19' E 018°06'0 0.0
2017-Mar-24 10:32N 59°19' E 018°06'0 0.0
2017-Mar-24 09:32N 59°19' E 018°06'2 2.0
2017-Mar-24 08:33N 59°19' E 018°10'10 9.5
2017-Mar-24 07:33N 59°23' E 018°27'81 9.8
2017-Mar-23 23:18N 59°37' E 021°04'1317.4
2017-Mar-23 22:33N 59°34' E 021°29'1717.0
2017-Mar-23 21:33N 59°33' E 022°02'4017.5
2017-Mar-23 19:15N 59°41' E 023°20'1217.4
2017-Mar-23 18:33N 59°45' E 023°43'2017.0
2017-Mar-23 17:23N 59°56' E 024°16'66 4.4
2017-Mar-23 02:32N 59°34' E 022°13'1818.1
2017-Mar-23 01:33N 59°32' E 021°38'9812.2
2017-Mar-22 17:32N 59°28' E 018°26'7 6.7
2017-Mar-22 16:33N 59°22' E 018°19'7 7.1
2017-Mar-22 15:31N 59°19' E 018°06'0 0.0
2017-Mar-22 14:31N 59°19' E 018°06'0 0.0
2017-Mar-22 13:31N 59°19' E 018°06'0 0.0
2017-Mar-22 12:31N 59°19' E 018°06'0 0.0
2017-Mar-22 11:31N 59°19' E 018°06'0 0.0
2017-Mar-22 10:31N 59°19' E 018°06'0 0.0
2017-Mar-22 09:28N 59°19' E 018°06'2 2.1
2017-Mar-22 08:33N 59°19' E 018°10'9 8.9
2017-Mar-22 07:30N 59°23' E 018°27'9210.3
2017-Mar-21 22:32N 59°34' E 021°27'19 0.9
2017-Mar-21 02:09N 59°33' E 022°03'1017.7
2017-Mar-21 01:33N 59°32' E 021°43'10011.8
2017-Mar-20 17:06N 59°27' E 018°26'5 9.5
2017-Mar-20 16:33N 59°22' E 018°27'1010.3
2017-Mar-20 15:33N 59°19' E 018°08'1 1.0
2017-Mar-20 14:32N 59°19' E 018°06'0 0.0
2017-Mar-20 13:32N 59°19' E 018°06'0 0.0
2017-Mar-20 12:32N 59°19' E 018°06'0 0.0
2017-Mar-20 11:32N 59°19' E 018°06'0 0.0
2017-Mar-20 10:29N 59°19' E 018°06'0 0.0
2017-Mar-20 09:32N 59°19' E 018°06'2 1.8
2017-Mar-20 08:33N 59°19' E 018°09'10 9.6
2017-Mar-20 07:32N 59°23' E 018°27'82 9.9
2017-Mar-19 23:11N 59°37' E 021°07'1117.3
2017-Mar-19 22:33N 59°34' E 021°28'1817.0
2017-Mar-19 21:31N 59°33' E 022°03'1817.3
2017-Mar-19 20:28N 59°36' E 022°38'55 3.8
2017-Mar-19 06:12N 59°51' E 024°22'1117.9
2017-Mar-19 05:33N 59°47' E 024°00'1817.9
2017-Mar-19 04:33N 59°42' E 023°26'2217.9
2017-Mar-19 03:20N 59°37' E 022°44'1417.9
2017-Mar-19 02:33N 59°34' E 022°16'1717.7
2017-Mar-19 01:33N 59°31' E 021°42'9911.9
2017-Mar-18 17:14N 59°29' E 018°27'7 9.9
2017-Mar-18 16:33N 59°22' E 018°27'1010.3
2017-Mar-18 15:33N 59°19' E 018°08'1 0.9
2017-Mar-18 14:33N 59°19' E 018°06'0 0.0
2017-Mar-18 13:33N 59°19' E 018°06'0 0.0
2017-Mar-18 12:33N 59°19' E 018°06'0 0.0
2017-Mar-18 11:33N 59°19' E 018°06'0 0.0
2017-Mar-18 10:34N 59°19' E 018°06'0 0.0
2017-Mar-18 09:33N 59°19' E 018°06'2 2.2
2017-Mar-18 08:33N 59°19' E 018°10'10 7.2
2017-Mar-18 07:14N 59°26' E 018°23'8310.4
2017-Mar-17 23:12N 59°37' E 021°06'1117.1
2017-Mar-17 22:32N 59°34' E 021°28'1717.1
2017-Mar-17 21:33N 59°33' E 022°01'3617.4
2017-Mar-17 19:28N 59°40' E 023°11'1617.3
2017-Mar-17 18:33N 59°44' E 023°42'21 1.7
2017-Mar-17 06:13N 59°51' E 024°22'1218.0
2017-Mar-17 05:33N 59°47' E 023°60'1818.0
2017-Mar-17 04:33N 59°42' E 023°25'3718.0
2017-Mar-17 02:30N 59°34' E 022°14'1717.8
2017-Mar-17 01:33N 59°32' E 021°41'1817.9
2017-Mar-17 00:33N 59°36' E 021°07'8211.1
2017-Mar-16 17:10N 59°28' E 018°26'6 9.5
2017-Mar-16 16:33N 59°22' E 018°27'1010.3
2017-Mar-16 15:33N 59°19' E 018°08'1 1.0
2017-Mar-16 14:33N 59°19' E 018°06'0 0.0
2017-Mar-16 13:33N 59°19' E 018°06'0 0.0
2017-Mar-16 12:33N 59°19' E 018°06'0 0.0
2017-Mar-16 11:33N 59°19' E 018°06'0 0.0
2017-Mar-16 10:33N 59°19' E 018°06'0 0.0
2017-Mar-16 09:33N 59°19' E 018°06'2 1.9
2017-Mar-16 08:33N 59°19' E 018°10'10 9.3
2017-Mar-16 07:31N 59°24' E 018°27'80 9.8
2017-Mar-15 23:18N 59°37' E 021°03'1317.3
2017-Mar-15 22:33N 59°34' E 021°28'1717.0
2017-Mar-15 21:33N 59°33' E 022°01'3517.3
2017-Mar-15 19:31N 59°40' E 023°09'1717.3
2017-Mar-15 18:33N 59°44' E 023°41'4117.0
2017-Mar-15 16:10N 60°00' E 024°55'19 1.9
2017-Mar-15 06:12N 59°50' E 024°22'1218.0
2017-Mar-15 05:34N 59°47' E 024°00'  

Dump ship's entire track history